createdAt,value
2019-04-25T00:01:54.750Z,100007.48
2019-04-25T00:04:25.010Z,100040.87
2019-04-25T00:06:55.105Z,100046.79
2019-04-25T00:09:27.486Z,100050.30
2019-04-25T00:11:59.678Z,100055.81
2019-04-25T00:14:31.520Z,100072.30
2019-04-25T00:17:01.842Z,100088.63
2019-04-25T00:19:31.852Z,100097.96
2019-04-25T00:22:05.937Z,100116.92
2019-04-25T00:24:53.972Z,100117.70
2019-04-25T00:27:24.827Z,100120.66
2019-04-25T00:29:55.003Z,100129.14
2019-04-25T00:32:25.125Z,100140.22
2019-04-25T00:34:55.215Z,100116.94
2019-04-25T00:37:25.289Z,100116.63
2019-04-25T00:39:55.362Z,100107.68
2019-04-25T00:42:25.464Z,100099.22
2019-04-25T00:44:55.559Z,100100.60
2019-04-25T00:47:25.653Z,100098.26
2019-04-25T00:49:56.836Z,100099.43
2019-04-25T00:52:26.906Z,100101.84
2019-04-25T00:54:56.957Z,100102.88
2019-04-25T00:57:28.494Z,100111.19
2019-04-25T01:00:17.506Z,100113.84
2019-04-25T01:02:49.478Z,100104.64
2019-04-25T01:05:19.590Z,100108.98
2019-04-25T01:07:49.865Z,100116.89
2019-04-25T01:10:21.405Z,100117.92
2019-04-25T01:12:52.343Z,100109.36
2019-04-25T01:15:24.116Z,100096.36
2019-04-25T01:17:55.114Z,100086.04
2019-04-25T01:20:25.204Z,100086.70
2019-04-25T01:22:56.938Z,100069.67
2019-04-25T01:25:38.631Z,100060.97
2019-04-25T01:27:58.945Z,100067.49
2019-04-25T01:30:29.111Z,100038.22
2019-04-25T01:32:59.238Z,100061.58
2019-04-25T01:35:51.172Z,100076.02
2019-04-25T01:38:29.410Z,100072.35
2019-04-25T01:41:05.568Z,100080.53
2019-04-25T01:43:43.637Z,100100.91
2019-04-25T01:46:14.883Z,100094.11
2019-04-25T01:48:45.083Z,100104.01
2019-04-25T01:51:15.258Z,100097.25
2019-04-25T01:53:45.358Z,100106.20
2019-04-25T01:56:15.524Z,100118.05
2019-04-25T01:58:45.640Z,100126.54
2019-04-25T02:01:15.867Z,100130.23
2019-04-25T02:03:45.963Z,100129.60
2019-04-25T02:06:16.138Z,100140.14
2019-04-25T02:08:46.239Z,100166.27
2019-04-25T02:11:31.455Z,100164.98
2019-04-25T02:14:01.579Z,100160.49
2019-04-25T02:16:31.653Z,100163.22
2019-04-25T02:19:03.571Z,100166.37
2019-04-25T02:21:33.701Z,100184.97
2019-04-25T02:24:05.550Z,100192.37
2019-04-25T02:26:35.812Z,100195.97
2019-04-25T02:29:06.138Z,100204.86
2019-04-25T02:31:36.232Z,100208.47
2019-04-25T02:34:08.617Z,100211.66
2019-04-25T02:36:41.265Z,100214.38
2019-04-25T02:39:18.395Z,100224.15
2019-04-25T02:41:48.524Z,100226.94
2019-04-25T02:44:18.606Z,100228.88
2019-04-25T02:47:10.778Z,100235.89
2019-04-25T02:50:07.132Z,100228.84
2019-04-25T02:52:37.404Z,100236.81
2019-04-25T02:55:10.699Z,100228.26
2019-04-25T02:57:39.858Z,100236.41
2019-04-25T03:00:16.415Z,100230.09
2019-04-25T03:02:46.501Z,100229.17
2019-04-25T03:05:16.840Z,100235.09
2019-04-25T03:07:46.927Z,100235.86
2019-04-25T03:10:17.278Z,100241.44
2019-04-25T03:12:47.457Z,100245.91
2019-04-25T03:15:17.744Z,100244.95
2019-04-25T03:17:48.138Z,100251.86
2019-04-25T03:20:37.204Z,100243.41
2019-04-25T03:23:14.598Z,100241.92
2019-04-25T03:25:44.729Z,100237.28
2019-04-25T03:28:15.620Z,100230.78
2019-04-25T03:30:45.773Z,100236.30
2019-04-25T03:33:19.526Z,100241.84
2019-04-25T03:35:47.650Z,100237.20
2019-04-25T03:38:17.774Z,100224.73
2019-04-25T03:40:47.871Z,100225.48
2019-04-25T03:43:17.994Z,100239.88
2019-04-25T03:45:48.067Z,100239.19
2019-04-25T03:48:18.198Z,100246.25
2019-04-25T03:50:48.268Z,100244.92
2019-04-25T03:53:18.355Z,100255.42
2019-04-25T03:55:48.458Z,100260.30
2019-04-25T03:58:18.690Z,100257.30
2019-04-25T04:00:48.754Z,100256.39
2019-04-25T04:03:18.922Z,100263.21
2019-04-25T04:05:49.045Z,100268.92
2019-04-25T04:08:19.152Z,100267.58
2019-04-25T04:10:49.220Z,100270.06
2019-04-25T04:13:19.315Z,100287.57
2019-04-25T04:15:49.395Z,100288.36
2019-04-25T04:18:37.763Z,100286.01
2019-04-25T04:21:33.379Z,100286.70
2019-04-25T04:24:11.801Z,100290.15
2019-04-25T04:26:43.117Z,100295.16
2019-04-25T04:29:14.144Z,100302.80
2019-04-25T04:31:44.995Z,100301.05
2019-04-25T04:34:15.614Z,100308.88
2019-04-25T04:36:46.669Z,100321.83
2019-04-25T04:39:18.000Z,100330.66
2019-04-25T04:41:48.690Z,100333.27
2019-04-25T04:44:18.773Z,100332.36
2019-04-25T04:46:48.883Z,100343.13
2019-04-25T04:49:19.102Z,100344.20
2019-04-25T04:51:49.187Z,100343.30
2019-04-25T04:54:19.309Z,100354.25
2019-04-25T04:56:49.365Z,100352.93
2019-04-25T04:59:19.455Z,100355.92
2019-04-25T05:02:16.031Z,100358.48
2019-04-25T05:05:20.188Z,100357.88
2019-04-25T05:08:10.904Z,100366.39
2019-04-25T05:10:41.188Z,100366.08
2019-04-25T05:13:12.141Z,100367.52
2019-04-25T05:15:43.020Z,100372.63
2019-04-25T05:18:15.704Z,100374.44
2019-04-25T05:20:50.322Z,100384.38
2019-04-25T05:23:20.971Z,100387.13
2019-04-25T05:25:51.220Z,100394.34
2019-04-25T05:28:21.312Z,100405.40
2019-04-25T05:31:25.753Z,100418.51
2019-04-25T05:33:55.833Z,100424.64
2019-04-25T05:36:37.666Z,100419.62
2019-04-25T05:39:17.373Z,100428.00
2019-04-25T05:41:57.831Z,100434.77
2019-04-25T05:44:27.914Z,100445.93
2019-04-25T05:46:57.999Z,100460.18
2019-04-25T05:49:28.105Z,100461.27
2019-04-25T05:51:58.213Z,100464.25
2019-04-25T05:54:28.288Z,100469.78
2019-04-25T05:56:58.399Z,100472.30
2019-04-25T05:59:28.585Z,100476.48
2019-04-25T06:01:58.656Z,100476.36
2019-04-25T06:04:28.765Z,100475.21
2019-04-25T06:06:58.868Z,100487.84
2019-04-25T06:09:54.601Z,100482.63
2019-04-25T06:12:49.740Z,100490.25
2019-04-25T06:15:23.709Z,100490.88
2019-04-25T06:18:07.299Z,100502.34
2019-04-25T06:20:37.563Z,100501.00
2019-04-25T06:23:17.156Z,100509.78
2019-04-25T06:25:47.257Z,100514.73
2019-04-25T06:28:20.255Z,100513.45
2019-04-25T06:30:50.330Z,100508.80
2019-04-25T06:33:21.299Z,100514.86
2019-04-25T06:35:51.522Z,100519.22
2019-04-25T06:38:24.848Z,100518.34
2019-04-25T06:40:53.615Z,100528.39
2019-04-25T06:43:24.593Z,100520.45
2019-04-25T06:46:14.171Z,100527.40
2019-04-25T06:48:53.377Z,100526.88
2019-04-25T06:51:44.024Z,100522.29
2019-04-25T06:54:14.358Z,100528.13
2019-04-25T06:56:44.434Z,100528.53
2019-04-25T06:59:14.760Z,100530.64
2019-04-25T07:01:44.863Z,100530.48
2019-04-25T07:04:15.354Z,100528.36
2019-04-25T07:06:45.680Z,100532.53
2019-04-25T07:09:15.772Z,100531.52
2019-04-25T07:11:48.130Z,100536.88
2019-04-25T07:14:17.825Z,100534.94
2019-04-25T07:16:47.922Z,100545.77
2019-04-25T07:19:18.003Z,100541.70
2019-04-25T07:21:48.171Z,100538.29
2019-04-25T07:24:18.264Z,100536.38
2019-04-25T07:26:56.295Z,100537.02
2019-04-25T07:29:41.056Z,100538.78
2019-04-25T07:32:36.884Z,100537.47
2019-04-25T07:35:07.364Z,100530.77
2019-04-25T07:37:41.576Z,100527.02
2019-04-25T07:40:09.989Z,100522.07
2019-04-25T07:42:40.054Z,100523.09
2019-04-25T07:45:12.022Z,100525.80
2019-04-25T07:47:43.928Z,100527.78
2019-04-25T07:50:15.342Z,100528.86
2019-04-25T07:52:45.528Z,100539.06
2019-04-25T07:55:15.756Z,100534.57
2019-04-25T07:57:45.815Z,100535.30
2019-04-25T08:00:17.301Z,100527.48
2019-04-25T08:02:47.384Z,100542.37
2019-04-25T08:05:17.458Z,100536.31
2019-04-25T08:07:47.568Z,100533.81
2019-04-25T08:10:19.790Z,100532.56
2019-04-25T08:12:49.892Z,100542.30
2019-04-25T08:15:30.197Z,100535.73
2019-04-25T08:18:04.063Z,100538.98
2019-04-25T08:20:34.790Z,100539.99
2019-04-25T08:23:06.428Z,100538.45
2019-04-25T08:25:39.199Z,100528.01
2019-04-25T08:28:08.324Z,100524.63
2019-04-25T08:30:38.409Z,100531.19
2019-04-25T08:33:08.499Z,100535.59
2019-04-25T08:35:38.590Z,100535.52
2019-04-25T08:38:08.729Z,100540.84
2019-04-25T08:40:39.036Z,100544.61
2019-04-25T08:43:09.361Z,100536.75
2019-04-25T08:45:39.773Z,100534.98
2019-04-25T08:48:09.928Z,100535.20
2019-04-25T08:50:50.501Z,100531.28
2019-04-25T08:53:23.737Z,100531.84
2019-04-25T08:56:18.705Z,100530.16
2019-04-25T08:59:10.931Z,100531.48
2019-04-25T09:01:49.384Z,100530.03
2019-04-25T09:04:40.121Z,100532.11
2019-04-25T09:07:10.307Z,100524.72
2019-04-25T09:09:41.148Z,100530.39
2019-04-25T09:12:11.294Z,100533.84
2019-04-25T09:14:41.406Z,100536.20
2019-04-25T09:17:11.489Z,100539.88
2019-04-25T09:19:42.020Z,100552.34
2019-04-25T09:22:13.248Z,100547.66
2019-04-25T09:24:44.386Z,100543.91
2019-04-25T09:27:15.524Z,100556.73
2019-04-25T09:29:46.334Z,100553.66
2019-04-25T09:32:17.390Z,100547.44
2019-04-25T09:34:48.048Z,100548.03
2019-04-25T09:37:21.348Z,100534.65
2019-04-25T09:40:16.772Z,100542.34
2019-04-25T09:42:47.691Z,100544.25
2019-04-25T09:45:33.498Z,100535.31
2019-04-25T09:48:14.167Z,100537.06
2019-04-25T09:50:47.769Z,100527.73
2019-04-25T09:53:23.534Z,100544.81
2019-04-25T09:56:02.264Z,100545.09
2019-04-25T09:58:50.231Z,100561.09
2019-04-25T10:01:21.217Z,100559.52
2019-04-25T10:03:51.353Z,100566.28
2019-04-25T10:06:21.458Z,100549.50
2019-04-25T10:08:51.561Z,100558.30
2019-04-25T10:11:21.661Z,100547.52
2019-04-25T10:14:13.524Z,100548.39
2019-04-25T10:16:44.468Z,100542.93
2019-04-25T10:19:15.676Z,100538.33
2019-04-25T10:21:45.793Z,100536.19
2019-04-25T10:24:15.992Z,100530.72
2019-04-25T10:26:46.371Z,100541.39
2019-04-25T10:29:16.565Z,100545.80
2019-04-25T10:31:46.641Z,100535.74
2019-04-25T10:34:16.734Z,100537.53
2019-04-25T10:36:46.893Z,100541.30
2019-04-25T10:39:17.031Z,100543.74
2019-04-25T10:41:48.275Z,100547.73
2019-04-25T10:44:18.516Z,100544.92
2019-04-25T10:46:48.608Z,100549.37
2019-04-25T10:49:20.456Z,100547.88
2019-04-25T10:51:50.562Z,100535.09
2019-04-25T10:54:20.628Z,100538.28
2019-04-25T10:56:50.750Z,100551.91
2019-04-25T10:59:21.154Z,100544.20
2019-04-25T11:01:51.370Z,100548.25
2019-04-25T11:04:36.066Z,100551.37
2019-04-25T11:07:06.150Z,100537.80
2019-04-25T11:09:36.287Z,100536.72
2019-04-25T11:12:09.429Z,100547.80
2019-04-25T11:14:39.985Z,100547.17
2019-04-25T11:17:11.108Z,100546.46
2019-04-25T11:19:41.185Z,100542.88
2019-04-25T11:22:11.282Z,100534.78
2019-04-25T11:24:41.515Z,100529.05
2019-04-25T11:27:13.548Z,100539.48
2019-04-25T11:29:45.063Z,100540.27
2019-04-25T11:32:16.575Z,100538.36
2019-04-25T11:34:47.304Z,100540.21
2019-04-25T11:37:19.487Z,100549.27
2019-04-25T11:40:08.504Z,100543.48
2019-04-25T11:42:38.612Z,100536.61
2019-04-25T11:45:10.713Z,100531.96
2019-04-25T11:47:45.854Z,100536.31
2019-04-25T11:50:15.307Z,100538.80
2019-04-25T11:52:46.808Z,100534.07
2019-04-25T11:55:19.169Z,100529.90
2019-04-25T11:57:51.134Z,100528.95
2019-04-25T12:00:24.556Z,100525.59
2019-04-25T12:02:56.029Z,100522.14
2019-04-25T12:05:26.272Z,100524.25
2019-04-25T12:07:56.380Z,100520.22
2019-04-25T12:10:28.367Z,100526.97
2019-04-25T12:12:58.456Z,100517.73
2019-04-25T12:15:28.761Z,100522.43
2019-04-25T12:17:58.851Z,100525.32
2019-04-25T12:20:28.962Z,100531.63
2019-04-25T12:23:08.526Z,100522.96
2019-04-25T12:25:30.848Z,100531.20
2019-04-25T12:28:00.928Z,100520.31
2019-04-25T12:30:39.507Z,100530.95
2019-04-25T12:33:03.353Z,100532.55
2019-04-25T12:35:33.527Z,100530.84
2019-04-25T12:38:03.693Z,100538.64
2019-04-25T12:40:34.385Z,100535.99
2019-04-25T12:43:05.202Z,100542.22
2019-04-25T12:45:58.293Z,100538.75
2019-04-25T12:48:28.511Z,100555.70
2019-04-25T12:50:58.797Z,100548.22
2019-04-25T12:53:28.888Z,100541.91
2019-04-25T12:55:58.991Z,100538.72
2019-04-25T12:58:29.136Z,100533.16
2019-04-25T13:01:00.097Z,100540.70
2019-04-25T13:03:30.392Z,100547.00
2019-04-25T13:06:00.500Z,100543.25
2019-04-25T13:08:30.605Z,100533.59
2019-04-25T13:11:07.913Z,100530.17
2019-04-25T13:13:34.914Z,100530.73
2019-04-25T13:16:06.302Z,100535.60
2019-04-25T13:18:36.412Z,100536.99
2019-04-25T13:21:06.506Z,100545.23
2019-04-25T13:23:36.619Z,100542.66
2019-04-25T13:26:07.189Z,100538.36
2019-04-25T13:28:56.132Z,100540.65
2019-04-25T13:31:45.243Z,100532.79
2019-04-25T13:34:36.039Z,100531.24
2019-04-25T13:36:56.752Z,100530.72
2019-04-25T13:39:27.063Z,100529.78
2019-04-25T13:41:59.773Z,100529.82
2019-04-25T13:44:30.131Z,100540.01
2019-04-25T13:47:00.224Z,100538.30
2019-04-25T13:49:30.321Z,100533.95
2019-04-25T13:52:00.446Z,100532.89
2019-04-25T13:54:31.416Z,100527.47
2019-04-25T13:57:03.224Z,100526.34
2019-04-25T13:59:33.404Z,100522.98
2019-04-25T14:02:05.953Z,100523.78
2019-04-25T14:04:36.157Z,100507.09
2019-04-25T14:07:07.067Z,100508.14
2019-04-25T14:09:37.171Z,100507.61
2019-04-25T14:12:08.590Z,100510.16
2019-04-25T14:14:38.701Z,100509.99
2019-04-25T14:17:19.975Z,100506.80
2019-04-25T14:20:09.012Z,100494.23
2019-04-25T14:22:39.217Z,100491.01
2019-04-25T14:25:10.615Z,100493.86
2019-04-25T14:27:40.707Z,100505.26
2019-04-25T14:30:13.478Z,100493.02
2019-04-25T14:32:43.649Z,100483.99
2019-04-25T14:35:14.382Z,100495.81
2019-04-25T14:37:44.541Z,100484.61
2019-04-25T14:40:14.748Z,100485.39
2019-04-25T14:42:44.845Z,100485.38
2019-04-25T14:45:16.179Z,100471.45
2019-04-25T14:47:46.263Z,100485.69
2019-04-25T14:50:16.605Z,100482.43
2019-04-25T14:52:46.713Z,100479.95
2019-04-25T14:55:34.753Z,100465.68
2019-04-25T14:58:07.348Z,100467.45
2019-04-25T15:00:40.918Z,100470.61
2019-04-25T15:03:11.302Z,100470.86
2019-04-25T15:05:43.399Z,100468.81
2019-04-25T15:08:13.325Z,100467.52
2019-04-25T15:10:43.421Z,100471.53
2019-04-25T15:13:14.598Z,100469.58
2019-04-25T15:15:44.726Z,100462.14
2019-04-25T15:18:14.847Z,100451.45
2019-04-25T15:20:44.956Z,100470.63
2019-04-25T15:23:15.033Z,100462.98
2019-04-25T15:25:45.233Z,100474.65
2019-04-25T15:28:15.361Z,100471.95
2019-04-25T15:30:45.975Z,100470.05
2019-04-25T15:33:16.232Z,100472.47
2019-04-25T15:35:52.464Z,100460.23
2019-04-25T15:38:35.781Z,100469.45
2019-04-25T15:41:12.200Z,100470.07
2019-04-25T15:43:53.217Z,100471.47
2019-04-25T15:46:35.152Z,100473.36
2019-04-25T15:49:05.266Z,100459.73
2019-04-25T15:51:35.599Z,100462.46
2019-04-25T15:54:05.706Z,100465.86
2019-04-25T15:56:36.567Z,100459.86
2019-04-25T15:59:06.884Z,100455.18
2019-04-25T16:01:36.963Z,100456.47
2019-04-25T16:04:07.097Z,100452.14
2019-04-25T16:06:37.231Z,100450.73
2019-04-25T16:09:10.348Z,100443.87
2019-04-25T16:11:40.036Z,100444.81
2019-04-25T16:14:10.645Z,100438.58
2019-04-25T16:16:40.754Z,100437.41
2019-04-25T16:19:10.935Z,100437.77
2019-04-25T16:21:42.190Z,100438.84
2019-04-25T16:24:12.425Z,100433.14
2019-04-25T16:26:42.528Z,100437.67
2019-04-25T16:29:12.627Z,100438.38
2019-04-25T16:31:42.697Z,100434.73
2019-04-25T16:34:12.795Z,100429.77
2019-04-25T16:36:53.030Z,100429.62
2019-04-25T16:39:24.133Z,100424.48
2019-04-25T16:41:54.404Z,100424.52
2019-04-25T16:44:24.583Z,100421.62
2019-04-25T16:46:54.986Z,100421.55
2019-04-25T16:49:25.309Z,100420.69
2019-04-25T16:51:55.464Z,100419.11
2019-04-25T16:54:25.689Z,100414.14
2019-04-25T16:56:55.813Z,100413.14
2019-04-25T16:59:26.094Z,100408.36
2019-04-25T17:01:56.583Z,100405.80
2019-04-25T17:04:26.739Z,100412.27
2019-04-25T17:06:57.034Z,100403.59
2019-04-25T17:09:27.136Z,100403.18
2019-04-25T17:11:57.241Z,100407.51
2019-04-25T17:14:42.316Z,100394.57
2019-04-25T17:17:31.724Z,100405.49
2019-04-25T17:20:26.850Z,100409.38
2019-04-25T17:22:58.744Z,100405.72
2019-04-25T17:25:28.876Z,100412.95
2019-04-25T17:28:02.046Z,100411.24
2019-04-25T17:30:34.746Z,100418.33
2019-04-25T17:33:35.659Z,100420.77
2019-04-25T17:36:33.193Z,100417.46
2019-04-25T17:39:20.636Z,100419.55
2019-04-25T17:41:50.794Z,100421.36
2019-04-25T17:44:20.926Z,100430.89
2019-04-25T17:46:51.053Z,100424.39
2019-04-25T17:49:21.269Z,100418.91
2019-04-25T17:51:54.266Z,100421.96
2019-04-25T17:54:24.413Z,100417.68
2019-04-25T17:56:54.621Z,100421.94
2019-04-25T17:59:24.733Z,100425.59
2019-04-25T18:01:54.977Z,100424.95
2019-04-25T18:04:27.244Z,100420.73
2019-04-25T18:06:57.372Z,100420.80
2019-04-25T18:09:29.759Z,100426.36
2019-04-25T18:12:00.286Z,100425.02
2019-04-25T18:14:34.059Z,100419.13
2019-04-25T18:17:05.555Z,100420.28
2019-04-25T18:19:43.444Z,100422.58
2019-04-25T18:22:35.272Z,100419.11
2019-04-25T18:25:15.188Z,100422.22
2019-04-25T18:27:51.791Z,100422.25
2019-04-25T18:30:23.061Z,100426.15
2019-04-25T18:33:12.264Z,100420.70
2019-04-25T18:35:43.902Z,100425.73
2019-04-25T18:38:27.100Z,100424.05
2019-04-25T18:41:09.141Z,100430.66
2019-04-25T18:43:45.823Z,100423.97
2019-04-25T18:46:23.827Z,100422.03
2019-04-25T18:48:54.422Z,100420.73
2019-04-25T18:51:24.646Z,100416.00
2019-04-25T18:54:29.108Z,100414.70
2019-04-25T18:57:04.046Z,100426.94
2019-04-25T18:59:46.093Z,100428.42
2019-04-25T19:02:39.803Z,100435.14
2019-04-25T19:05:23.486Z,100429.61
2019-04-25T19:07:53.787Z,100432.80
2019-04-25T19:10:24.142Z,100436.73
2019-04-25T19:12:54.555Z,100434.39
2019-04-25T19:15:25.059Z,100430.08
2019-04-25T19:17:55.385Z,100438.09
2019-04-25T19:20:28.355Z,100431.36
2019-04-25T19:22:58.524Z,100441.84
2019-04-25T19:25:29.928Z,100434.02
2019-04-25T19:28:00.134Z,100424.11
2019-04-25T19:30:30.878Z,100423.84
2019-04-25T19:33:01.258Z,100425.94
2019-04-25T19:35:31.727Z,100428.34
2019-04-25T19:38:03.252Z,100420.91
2019-04-25T19:40:50.682Z,100412.70
2019-04-25T19:43:25.778Z,100416.70
2019-04-25T19:45:56.130Z,100421.27
2019-04-25T19:48:29.762Z,100422.05
2019-04-25T19:50:59.888Z,100423.28
2019-04-25T19:53:30.032Z,100417.09
2019-04-25T19:56:02.029Z,100421.55
2019-04-25T19:58:32.242Z,100426.78
2019-04-25T20:01:02.775Z,100418.59
2019-04-25T20:04:04.377Z,100414.21
2019-04-25T20:06:52.354Z,100418.38
2019-04-25T20:09:40.391Z,100419.94
2019-04-25T20:12:10.733Z,100416.41
2019-04-25T20:14:40.894Z,100414.51
2019-04-25T20:17:12.362Z,100411.27
2019-04-25T20:19:44.779Z,100412.66
2019-04-25T20:22:16.062Z,100412.66
2019-04-25T20:24:46.339Z,100414.46
2019-04-25T20:27:17.118Z,100421.39
2019-04-25T20:29:48.397Z,100417.83
2019-04-25T20:32:18.506Z,100414.78
2019-04-25T20:34:49.045Z,100409.62
2019-04-25T20:37:19.392Z,100403.17
2019-04-25T20:39:49.514Z,100394.41
2019-04-25T20:42:19.594Z,100388.66
2019-04-25T20:44:49.772Z,100392.47
2019-04-25T20:47:19.895Z,100394.23
2019-04-25T20:49:50.789Z,100394.14
2019-04-25T20:52:20.917Z,100400.05
2019-04-25T20:54:51.045Z,100394.14
2019-04-25T20:57:21.136Z,100389.05
2019-04-25T20:59:51.580Z,100382.61
2019-04-25T21:02:21.823Z,100385.01
2019-04-25T21:04:52.197Z,100380.42
2019-04-25T21:07:22.346Z,100380.87
2019-04-25T21:09:53.241Z,100387.14
2019-04-25T21:12:23.560Z,100387.89
2019-04-25T21:15:16.150Z,100380.26
2019-04-25T21:18:09.595Z,100381.98
2019-04-25T21:20:39.772Z,100390.77
2019-04-25T21:23:09.901Z,100388.11
2019-04-25T21:25:39.999Z,100384.28
2019-04-25T21:28:10.113Z,100381.06
2019-04-25T21:30:40.217Z,100378.56
2019-04-25T21:33:10.353Z,100378.20
2019-04-25T21:35:40.755Z,100379.22
2019-04-25T21:38:10.857Z,100375.55
2019-04-25T21:41:05.980Z,100376.48
2019-04-25T21:43:40.384Z,100373.98
2019-04-25T21:46:10.933Z,100376.88
2019-04-25T21:48:41.292Z,100372.44
2019-04-25T21:51:29.033Z,100381.95
2019-04-25T21:53:59.313Z,100384.39
2019-04-25T21:56:30.005Z,100377.45
2019-04-25T21:59:00.082Z,100367.25
2019-04-25T22:01:33.607Z,100374.08
2019-04-25T22:04:03.776Z,100362.61
2019-04-25T22:06:35.156Z,100362.06
2019-04-25T22:09:10.051Z,100361.93
2019-04-25T22:11:40.146Z,100362.67
2019-04-25T22:14:11.364Z,100360.83
2019-04-25T22:16:41.731Z,100356.18
2019-04-25T22:19:12.773Z,100356.38
2019-04-25T22:21:43.063Z,100351.95
2019-04-25T22:24:14.439Z,100354.47
2019-04-25T22:26:45.330Z,100351.52
2019-04-25T22:29:15.501Z,100348.97
2019-04-25T22:31:52.872Z,100351.19
2019-04-25T22:34:35.110Z,100343.52
2019-04-25T22:37:06.217Z,100342.98
2019-04-25T22:39:36.979Z,100342.72
2019-04-25T22:42:08.010Z,100343.03
2019-04-25T22:44:38.294Z,100340.31
2019-04-25T22:47:08.597Z,100341.64
2019-04-25T22:49:38.919Z,100339.44
2019-04-25T22:52:09.168Z,100334.99
2019-04-25T22:54:39.354Z,100333.81
2019-04-25T22:57:09.375Z,100334.90
2019-04-25T22:59:40.806Z,100331.69
2019-04-25T23:02:27.280Z,100324.02
2019-04-25T23:05:16.241Z,100319.34
2019-04-25T23:07:45.971Z,100329.38
2019-04-25T23:10:16.320Z,100321.02
2019-04-25T23:12:46.402Z,100320.53
2019-04-25T23:15:16.392Z,100325.23
2019-04-25T23:17:46.504Z,100320.38
2019-04-25T23:20:16.729Z,100309.83
2019-04-25T23:22:46.801Z,100306.03
2019-04-25T23:25:19.742Z,100308.06
2019-04-25T23:27:57.171Z,100311.50
2019-04-25T23:30:33.033Z,100311.59
2019-04-25T23:33:04.098Z,100308.51
2019-04-25T23:35:35.586Z,100313.52
2019-04-25T23:38:07.036Z,100308.41
2019-04-25T23:40:37.124Z,100316.69
2019-04-25T23:43:07.528Z,100318.31
2019-04-25T23:45:37.651Z,100312.30
2019-04-25T23:48:08.293Z,100319.64
2019-04-25T23:50:38.440Z,100306.30
2019-04-25T23:53:08.961Z,100316.00
2019-04-25T23:55:39.498Z,100308.20
2019-04-25T23:58:09.624Z,100304.22
